Time;durP1;ratioP1;P1;durP2;ratioP2;P2;SDS_P1;SDS_P2;PMS_P1;PMS_P2;Temp;Humidity;BMP_temperature;BMP_pressure;BME280_temperature;BME280_humidity;BME280_pressure;Samples;Min_cycle;Max_cycle;Signal;HPM_P1;HPM_P2
2022/02/15 00:01:49;;;;;;;8.40;5.23;;;5.40;99.90;5.20;99728.00;;;;4964996;28;116488;-66
2022/02/15 00:04:16;;;;;;;8.87;6.23;;;5.30;99.90;5.20;99732.00;;;;4974784;28;110505;-65
2022/02/15 00:06:42;;;;;;;9.10;6.00;;;5.30;99.90;5.10;99733.00;;;;4976473;28;87805;-67
2022/02/15 00:09:07;;;;;;;10.83;6.53;;;5.30;99.90;5.20;99743.00;;;;4975671;28;118041;-66
2022/02/15 00:11:34;;;;;;;9.03;6.33;;;5.30;99.90;5.10;99742.00;;;;4976763;28;87908;-66
2022/02/15 00:13:59;;;;;;;13.87;6.87;;;5.30;99.90;5.10;99738.00;;;;4976080;28;94021;-66
2022/02/15 00:16:25;;;;;;;11.03;5.93;;;5.10;99.90;5.10;99736.00;;;;4975345;28;108160;-66
2022/02/15 00:18:51;;;;;;;14.20;6.20;;;5.30;99.90;5.10;99737.00;;;;4974016;28;117079;-66
2022/02/15 00:21:17;;;;;;;15.23;6.67;;;5.30;99.90;5.10;99739.00;;;;4975636;28;116735;-67
2022/02/15 00:23:42;;;;;;;9.77;6.27;;;5.20;99.90;5.10;99743.00;;;;4974934;28;112071;-67
2022/02/15 00:26:08;;;;;;;7.33;5.43;;;5.20;99.90;5.10;99745.00;;;;4975737;28;108565;-67
2022/02/15 00:28:34;;;;;;;13.17;6.43;;;5.20;99.90;5.10;99746.00;;;;4974086;28;118720;-66
2022/02/15 00:30:59;;;;;;;8.03;6.17;;;5.20;99.90;5.10;99756.00;;;;4960700;28;116930;-66
2022/02/15 00:33:25;;;;;;;9.10;5.80;;;5.20;99.90;5.10;99739.00;;;;4956441;28;88577;-66
2022/02/15 00:35:51;;;;;;;10.37;6.17;;;5.20;99.90;5.10;99741.00;;;;4955649;28;109315;-66
2022/02/15 00:38:17;;;;;;;13.17;6.50;;;5.30;99.90;5.10;99755.00;;;;4955632;28;103571;-66
2022/02/15 00:40:42;;;;;;;9.63;5.97;;;5.30;99.90;5.10;99753.00;;;;4954685;28;116159;-67
2022/02/15 00:43:08;;;;;;;9.70;5.97;;;5.20;99.90;5.10;99764.00;;;;4955699;28;92626;-66
2022/02/15 00:45:35;;;;;;;6.53;5.20;;;5.20;99.90;5.10;99755.00;;;;4956455;28;87753;-68
2022/02/15 00:48:01;;;;;;;11.60;6.60;;;5.20;99.90;5.10;99751.00;;;;4971140;28;88028;-67
2022/02/15 00:50:27;;;;;;;10.13;6.03;;;5.20;99.90;5.10;99754.00;;;;4955170;28;105846;-67
2022/02/15 00:52:53;;;;;;;8.57;6.07;;;5.20;99.90;5.10;99760.00;;;;4955072;28;110462;-67
2022/02/15 00:55:19;;;;;;;12.67;6.63;;;5.30;99.90;5.20;99759.00;;;;4955637;28;107211;-67
2022/02/15 00:57:45;;;;;;;7.87;5.90;;;5.30;99.90;5.20;99762.00;;;;4964340;28;88238;-67
2022/02/15 01:00:13;;;;;;;16.10;6.13;;;5.30;99.90;5.20;99762.00;;;;4968149;28;116975;-67
2022/02/15 01:02:39;;;;;;;9.37;6.77;;;5.30;99.90;5.20;99759.00;;;;4970448;28;91045;-66
2022/02/15 01:05:06;;;;;;;14.47;7.13;;;5.40;99.90;5.30;99757.00;;;;4954955;28;98403;-66
2022/02/15 01:07:31;;;;;;;10.77;6.17;;;5.40;99.90;5.30;99760.00;;;;4955151;28;94399;-65
2022/02/15 01:09:58;;;;;;;9.47;6.90;;;5.40;99.90;5.30;99755.00;;;;4954262;28;118047;-66
2022/02/15 01:12:24;;;;;;;8.43;5.67;;;5.40;99.90;5.30;99758.00;;;;4962908;28;87788;-66
2022/02/15 01:14:50;;;;;;;10.53;6.30;;;5.40;99.90;5.30;99751.00;;;;4975395;28;87963;-65
2022/02/15 01:17:16;;;;;;;10.00;6.43;;;5.40;99.90;5.30;99753.00;;;;4975075;28;94706;-65
2022/02/15 01:19:42;;;;;;;11.80;6.83;;;5.50;99.90;5.30;99745.00;;;;4974567;28;114781;-66
2022/02/15 01:22:08;;;;;;;9.30;6.43;;;5.50;99.90;5.30;99745.00;;;;4965692;28;87193;-66
2022/02/15 01:24:34;;;;;;;13.10;6.90;;;5.50;99.90;5.30;99748.00;;;;4955394;28;88780;-67
2022/02/15 01:27:00;;;;;;;10.73;6.30;;;5.50;99.90;5.40;99748.00;;;;4968887;28;116519;-67
2022/02/15 01:29:26;;;;;;;9.13;6.43;;;5.50;99.90;5.30;99750.00;;;;4954809;28;88963;-66
2022/02/15 01:31:52;;;;;;;7.77;6.13;;;5.50;99.90;5.40;99741.00;;;;4954452;28;109394;-66
2022/02/15 01:34:18;;;;;;;7.83;5.73;;;6.10;99.90;5.40;99740.00;;;;4955759;28;87896;-68
2022/02/15 01:36:44;;;;;;;10.40;6.20;;;5.50;99.90;5.40;99742.00;;;;4955551;28;88166;-66
2022/02/15 01:39:09;;;;;;;8.77;6.47;;;5.50;99.90;5.40;99742.00;;;;4953199;28;117757;-66
2022/02/15 01:41:35;;;;;;;11.97;6.07;;;5.50;99.90;5.40;99745.00;;;;4954588;28;110214;-66
2022/02/15 01:44:01;;;;;;;9.73;6.30;;;5.60;99.90;5.40;99741.00;;;;4969795;28;88000;-66
2022/02/15 01:46:27;;;;;;;9.10;6.13;;;5.50;99.90;5.40;99739.00;;;;4954218;28;118484;-67
2022/02/15 01:48:52;;;;;;;17.23;6.83;;;5.50;99.90;5.40;99737.00;;;;4971962;28;87775;-66
2022/02/15 01:51:18;;;;;;;8.60;5.97;;;5.50;99.90;5.40;99740.00;;;;4954258;28;111497;-66
2022/02/15 01:53:44;;;;;;;8.90;6.40;;;5.50;99.90;5.40;99740.00;;;;4959375;28;88678;-68
2022/02/15 01:56:12;;;;;;;11.93;6.47;;;5.50;99.90;5.40;99747.00;;;;4954841;28;88817;-67
2022/02/15 01:58:39;;;;;;;9.60;5.67;;;5.50;99.90;5.40;99742.00;;;;4954753;28;101414;-68
2022/02/15 02:01:04;;;;;;;14.00;6.10;;;5.50;99.90;5.40;99746.00;;;;4965963;28;87932;-67
2022/02/15 02:03:31;;;;;;;8.57;6.00;;;5.50;99.90;5.40;99741.00;;;;4978735;28;108143;-66
2022/02/15 02:05:56;;;;;;;7.90;5.97;;;5.60;99.90;5.40;99748.00;;;;4966996;28;103369;-66
2022/02/15 02:08:28;;;;;;;7.40;5.37;;;5.50;99.90;5.40;99748.00;;;;4953885;28;118079;-65
2022/02/15 02:10:55;;;;;;;10.00;6.03;;;5.50;99.90;5.40;99745.00;;;;4955464;28;87143;-66
2022/02/15 02:13:21;;;;;;;11.77;7.03;;;5.60;99.90;5.40;99742.00;;;;4969893;28;87891;-66
2022/02/15 02:15:48;;;;;;;12.93;6.77;;;5.50;99.90;5.40;99734.00;;;;4974857;28;89304;-66
2022/02/15 02:18:16;;;;;;;7.97;5.03;;;5.50;99.90;5.30;99745.00;;;;4957905;28;88660;-66
2022/02/15 02:20:42;;;;;;;8.73;6.17;;;5.50;99.90;5.30;99740.00;;;;4969787;28;87858;-66
2022/02/15 02:23:20;;;;;;;10.83;6.00;;;5.50;99.90;5.30;99744.00;;;;4957536;28;87852;-66
2022/02/15 02:25:47;;;;;;;9.97;5.80;;;5.40;99.90;5.30;99751.00;;;;4958194;28;88113;-65
2022/02/15 02:28:13;;;;;;;9.87;5.97;;;5.40;99.90;5.30;99744.00;;;;4958510;28;88212;-66
2022/02/15 02:30:39;;;;;;;9.63;5.70;;;5.40;99.90;5.30;99754.00;;;;4958830;28;87923;-66
2022/02/15 02:33:05;;;;;;;9.17;5.60;;;5.40;99.90;5.20;99744.00;;;;4957209;28;89845;-67
2022/02/15 02:35:31;;;;;;;12.53;5.33;;;5.30;99.90;5.20;99738.00;;;;4958674;28;99261;-68
2022/02/15 02:37:57;;;;;;;13.37;6.87;;;5.40;99.90;5.20;99744.00;;;;4975160;28;91491;-67
2022/02/15 02:40:24;;;;;;;9.47;6.40;;;5.40;99.90;5.20;99737.00;;;;4978348;28;87749;-67
2022/02/15 02:42:49;;;;;;;12.00;5.33;;;5.40;99.90;5.20;99736.00;;;;4977185;28;88631;-67
2022/02/15 02:45:19;;;;;;;7.80;5.30;;;5.40;99.90;5.30;99739.00;;;;4967234;28;117752;-67
2022/02/15 02:47:53;;;;;;;10.87;6.83;;;5.40;99.90;5.20;99743.00;;;;4957401;28;88989;-66
2022/02/15 02:50:24;;;;;;;8.50;5.77;;;5.40;99.90;5.30;99752.00;;;;4973557;28;88284;-66
2022/02/15 02:52:50;;;;;;;7.90;5.53;;;5.40;99.90;5.30;99754.00;;;;4968732;28;88057;-66
2022/02/15 02:55:16;;;;;;;7.93;5.20;;;5.40;99.90;5.30;99756.00;;;;4978064;28;87626;-66
2022/02/15 02:57:41;;;;;;;9.87;5.30;;;5.50;99.90;5.30;99771.00;;;;4974325;28;117393;-67
2022/02/15 03:00:14;;;;;;;13.90;6.90;;;5.40;99.90;5.30;99766.00;;;;4971575;28;110144;-67
2022/02/15 03:02:40;;;;;;;7.50;5.37;;;5.50;99.90;5.40;99770.00;;;;4956857;28;97130;-66
2022/02/15 03:05:06;;;;;;;7.77;4.87;;;5.50;99.90;5.40;99774.00;;;;4957563;28;87707;-66
2022/02/15 03:07:34;;;;;;;7.73;5.37;;;5.50;99.90;5.40;99778.00;;;;4961384;28;88908;-66
2022/02/15 03:09:59;;;;;;;8.93;5.87;;;5.50;99.90;5.40;99776.00;;;;4978054;28;87967;-66
2022/02/15 03:12:25;;;;;;;10.80;6.33;;;5.60;99.90;5.50;99783.00;;;;4971979;28;91197;-67
2022/02/15 03:14:51;;;;;;;12.20;5.20;;;5.60;99.90;5.50;99775.00;;;;4971381;28;89004;-67
2022/02/15 03:17:16;;;;;;;9.47;5.47;;;5.70;99.90;5.50;99787.00;;;;4956050;28;110684;-68
2022/02/15 03:19:42;;;;;;;9.73;5.70;;;5.60;99.90;5.60;99787.00;;;;4957008;28;87773;-67
2022/02/15 03:22:08;;;;;;;8.30;5.27;;;5.70;99.90;5.60;99790.00;;;;4957268;28;89074;-66
2022/02/15 03:24:34;;;;;;;9.87;5.67;;;5.70;99.90;5.60;99795.00;;;;4957222;28;108681;-66
2022/02/15 03:27:00;;;;;;;8.40;5.73;;;5.70;99.90;5.70;99793.00;;;;4957261;28;103290;-66
2022/02/15 03:29:27;;;;;;;9.43;5.33;;;5.80;99.90;5.70;99793.00;;;;4956787;28;89185;-66
2022/02/15 03:31:53;;;;;;;16.47;5.43;;;5.80;99.90;5.70;99795.00;;;;4957630;28;88655;-66
2022/02/15 03:34:18;;;;;;;9.57;5.60;;;5.80;99.90;5.70;99795.00;;;;4955861;28;88856;-67
2022/02/15 03:36:44;;;;;;;7.40;4.80;;;5.80;99.90;5.70;99801.00;;;;4956388;28;116054;-66
2022/02/15 03:39:10;;;;;;;10.17;5.57;;;5.80;99.90;5.70;99792.00;;;;4955833;28;110390;-66
2022/02/15 03:44:22;;;;;;;7.47;5.33;;;5.90;99.90;5.80;99802.00;;;;4976622;28;88243;-66
2022/02/15 03:46:49;;;;;;;8.17;5.67;;;5.80;99.90;5.70;99794.00;;;;4974747;28;87759;-66
2022/02/15 03:49:16;;;;;;;7.37;5.40;;;5.90;99.90;5.80;99809.00;;;;4956993;28;87145;-67
2022/02/15 03:51:42;;;;;;;8.07;4.73;;;5.90;99.90;5.80;99807.00;;;;4958203;28;87721;-65
2022/02/15 03:54:08;;;;;;;8.27;5.47;;;5.90;99.90;5.80;99813.00;;;;4957031;28;88456;-65
2022/02/15 03:56:35;;;;;;;9.93;5.27;;;5.90;99.90;5.80;99809.00;;;;4955611;28;118052;-65
2022/02/15 03:59:03;;;;;;;8.87;4.67;;;5.90;99.90;5.80;99806.00;;;;4957122;28;88068;-66
2022/02/15 04:01:29;;;;;;;8.33;5.53;;;5.90;99.90;5.90;99811.00;;;;4971752;28;87799;-66
2022/02/15 04:03:55;;;;;;;12.83;5.07;;;6.00;99.90;5.90;99823.00;;;;4955676;28;88405;-66
2022/02/15 04:06:21;;;;;;;11.57;4.90;;;6.10;99.90;5.90;99838.00;;;;4956117;28;116889;-68
2022/02/15 04:08:46;;;;;;;6.77;4.87;;;6.10;99.90;5.90;99828.00;;;;4968737;28;88062;-67
2022/02/15 04:11:12;;;;;;;6.87;4.73;;;6.10;99.90;6.00;99820.00;;;;4976259;28;107597;-66
2022/02/15 04:13:39;;;;;;;7.73;5.67;;;6.10;99.90;6.00;99818.00;;;;4962791;28;87930;-65
2022/02/15 04:16:05;;;;;;;8.83;5.10;;;6.10;99.90;6.00;99823.00;;;;4957097;28;88037;-66
2022/02/15 04:18:32;;;;;;;7.90;5.67;;;6.20;99.90;6.00;99830.00;;;;4955622;28;87767;-67
2022/02/15 04:20:58;;;;;;;8.37;4.80;;;6.10;99.90;6.00;99822.00;;;;4956553;28;88783;-66
2022/02/15 04:23:24;;;;;;;8.60;5.73;;;6.20;99.90;6.00;99818.00;;;;4956132;28;104398;-66
2022/02/15 04:25:51;;;;;;;10.10;5.50;;;6.20;99.90;6.10;99837.00;;;;4955582;28;117580;-66
2022/02/15 04:28:17;;;;;;;6.67;4.17;;;6.20;99.90;6.10;99846.00;;;;4956423;28;87902;-66
2022/02/15 04:30:43;;;;;;;7.33;4.83;;;6.20;99.90;6.10;99841.00;;;;4955955;28;95605;-67
2022/02/15 04:33:09;;;;;;;10.77;5.07;;;6.20;99.90;6.10;99844.00;;;;4955567;28;105050;-67
2022/02/15 04:35:35;;;;;;;8.13;4.37;;;6.20;99.90;6.10;99836.00;;;;4961353;28;88566;-66
2022/02/15 04:38:02;;;;;;;10.50;4.90;;;6.20;99.90;6.10;99839.00;;;;4975703;28;98826;-67
2022/02/15 04:40:28;;;;;;;7.87;4.77;;;6.20;99.90;6.10;99835.00;;;;4975774;28;109184;-67
2022/02/15 04:42:53;;;;;;;8.63;4.93;;;6.20;99.90;6.10;99845.00;;;;4964040;28;88926;-66
2022/02/15 04:45:19;;;;;;;9.50;4.80;;;6.20;99.90;6.10;99843.00;;;;4955529;28;117561;-65
2022/02/15 04:47:45;;;;;;;7.23;4.93;;;6.20;99.90;6.10;99844.00;;;;4964691;28;110255;-66
2022/02/15 04:50:10;;;;;;;10.97;4.77;;;6.20;99.90;6.00;99841.00;;;;4975457;28;108956;-67
2022/02/15 04:52:36;;;;;;;5.87;4.50;;;6.20;99.90;6.00;99846.00;;;;4965122;28;117161;-67
2022/02/15 04:55:02;;;;;;;6.07;4.37;;;6.20;99.90;6.00;99850.00;;;;4970054;28;117632;-66
2022/02/15 04:57:28;;;;;;;7.80;4.60;;;6.20;99.90;6.00;99854.00;;;;4956370;28;87835;-66
2022/02/15 04:59:54;;;;;;;5.53;4.13;;;6.20;99.90;6.10;99846.00;;;;4956045;28;87699;-67
2022/02/15 05:02:19;;;;;;;6.20;3.83;;;6.20;99.90;6.00;99852.00;;;;4957275;28;100511;-67
2022/02/15 05:04:48;;;;;;;8.73;4.37;;;6.20;99.90;6.00;99848.00;;;;4973309;28;87680;-65
2022/02/15 05:07:17;;;;;;;6.03;3.57;;;6.20;99.90;6.10;99849.00;;;;4974955;28;87924;-65
2022/02/15 05:09:42;;;;;;;6.90;3.97;;;6.20;99.90;6.10;99842.00;;;;4973988;28;90379;-66
2022/02/15 05:12:09;;;;;;;5.63;4.10;;;6.20;99.90;6.10;99858.00;;;;4988992;28;87974;-66
2022/02/15 05:14:35;;;;;;;13.10;4.70;;;6.20;99.90;6.10;99854.00;;;;4954755;28;104156;-66
2022/02/15 05:17:01;;;;;;;6.27;4.30;;;6.20;99.90;6.10;99855.00;;;;4957102;28;87769;-66
2022/02/15 05:19:27;;;;;;;6.40;3.97;;;6.20;99.90;6.10;99861.00;;;;4973828;28;108151;-65
2022/02/15 05:21:52;;;;;;;9.00;4.57;;;6.20;99.90;6.10;99856.00;;;;4969643;28;87798;-66
2022/02/15 05:24:18;;;;;;;7.10;4.37;;;6.20;99.90;6.10;99871.00;;;;4954402;28;115992;-67
2022/02/15 05:26:44;;;;;;;6.27;3.93;;;6.20;99.90;6.10;99869.00;;;;4956137;28;110388;-67
2022/02/15 05:29:10;;;;;;;9.27;3.70;;;6.20;99.90;6.10;99878.00;;;;4952506;28;109348;-66
2022/02/15 05:31:35;;;;;;;7.30;3.73;;;6.20;99.90;6.10;99875.00;;;;4965585;28;89336;-66
2022/02/15 05:34:01;;;;;;;5.13;3.70;;;6.20;99.90;6.10;99864.00;;;;4971605;28;117888;-66
2022/02/15 05:36:27;;;;;;;7.93;3.60;;;6.20;99.90;6.10;99875.00;;;;4973161;28;91720;-66
2022/02/15 05:38:52;;;;;;;12.87;4.33;;;6.20;99.90;6.10;99877.00;;;;4961650;28;87553;-66
2022/02/15 05:41:18;;;;;;;7.63;4.40;;;6.20;99.90;6.10;99877.00;;;;4970875;28;118142;-65
2022/02/15 05:43:44;;;;;;;5.13;3.83;;;6.20;99.90;6.10;99881.00;;;;4971349;28;101222;-66
2022/02/15 05:46:10;;;;;;;5.70;3.17;;;6.20;99.90;6.10;99880.00;;;;4970940;28;110260;-66
2022/02/15 05:48:36;;;;;;;5.73;3.63;;;6.20;99.90;6.10;99881.00;;;;4971101;28;109087;-65
2022/02/15 05:51:01;;;;;;;6.27;3.80;;;6.20;99.90;6.10;99892.00;;;;4970848;28;118581;-66
2022/02/15 05:53:29;;;;;;;5.97;3.90;;;6.20;99.90;6.10;99879.00;;;;4968220;28;118160;-66
2022/02/15 05:55:59;;;;;;;7.70;4.60;;;6.20;99.90;6.10;99890.00;;;;4966642;28;87631;-66
2022/02/15 05:58:26;;;;;;;5.17;3.30;;;6.20;99.90;6.10;99883.00;;;;4959793;28;88870;-66
2022/02/15 06:00:52;;;;;;;6.30;3.57;;;6.20;99.90;6.10;99891.00;;;;4966852;28;88407;-65
2022/02/15 06:06:02;;;;;;;5.53;3.70;;;6.20;99.90;6.00;99905.00;;;;4973736;28;87791;-66
2022/02/15 06:08:28;;;;;;;8.03;3.67;;;6.20;99.90;6.00;99903.00;;;;4973859;28;89368;-66
2022/02/15 06:10:54;;;;;;;5.37;3.70;;;6.10;99.90;6.00;99906.00;;;;4974439;28;95135;-66
2022/02/15 06:13:19;;;;;;;8.03;2.87;;;6.10;99.90;6.00;99910.00;;;;4973722;28;117078;-66
2022/02/15 06:15:46;;;;;;;5.73;3.30;;;6.10;99.90;5.90;99915.00;;;;4974817;28;89701;-66
2022/02/15 06:18:13;;;;;;;5.27;4.00;;;6.00;99.90;5.90;99917.00;;;;4973632;28;93549;-66
2022/02/15 06:20:40;;;;;;;5.23;3.43;;;6.10;99.90;5.90;99917.00;;;;4973985;28;117660;-66
2022/02/15 06:23:06;;;;;;;5.27;3.60;;;6.10;99.90;5.90;99927.00;;;;4965112;28;89054;-66
2022/02/15 06:25:31;;;;;;;6.43;4.23;;;6.00;99.90;5.90;99927.00;;;;4962646;28;110424;-67
2022/02/15 06:27:58;;;;;;;6.40;3.63;;;6.00;99.90;5.90;99930.00;;;;4959779;28;87646;-66
2022/02/15 06:30:24;;;;;;;6.23;3.90;;;6.00;99.90;5.80;99938.00;;;;4954323;28;106257;-67
2022/02/15 06:32:50;;;;;;;4.13;3.50;;;5.90;99.90;5.80;99942.00;;;;4965082;28;101677;-67
2022/02/15 06:35:16;;;;;;;8.53;4.17;;;6.00;99.90;5.80;99945.00;;;;4973996;28;108545;-67
2022/02/15 06:37:50;;;;;;;4.77;3.80;;;5.90;99.90;5.70;99944.00;;;;4974825;28;87785;-67
2022/02/15 06:40:17;;;;;;;5.93;3.80;;;5.90;99.90;5.70;99942.00;;;;4974342;28;88350;-67
2022/02/15 06:42:44;;;;;;;5.97;3.93;;;5.70;99.90;5.60;99939.00;;;;4974195;28;87919;-66
2022/02/15 06:45:11;;;;;;;4.37;3.43;;;5.70;99.90;5.60;99946.00;;;;4974033;28;87782;-66
2022/02/15 06:47:37;;;;;;;6.10;4.23;;;5.70;99.90;5.50;99947.00;;;;4974661;28;88685;-67
2022/02/15 06:50:05;;;;;;;12.47;5.00;;;5.70;99.90;5.40;99952.00;;;;4974241;28;89331;-67
2022/02/15 06:52:31;;;;;;;9.00;3.57;;;5.70;99.90;5.40;99963.00;;;;4965116;28;98066;-67
2022/02/15 06:54:57;;;;;;;8.73;4.27;;;5.60;99.90;5.40;99966.00;;;;4967677;28;87863;-67
2022/02/15 06:57:25;;;;;;;6.20;3.97;;;5.50;99.90;5.30;99959.00;;;;4964723;28;108148;-67
2022/02/15 06:59:51;;;;;;;7.73;3.40;;;5.50;99.90;5.30;99965.00;;;;4953931;28;88237;-67
2022/02/15 07:02:18;;;;;;;8.40;4.17;;;5.50;99.90;5.30;99978.00;;;;4961795;28;88471;-68
2022/02/15 07:04:46;;;;;;;5.57;4.20;;;5.50;99.90;5.30;99989.00;;;;4974105;28;86906;-67
2022/02/15 07:07:13;;;;;;;5.00;3.50;;;5.40;99.90;5.20;99977.00;;;;4968362;28;87708;-67
2022/02/15 07:09:42;;;;;;;5.87;3.73;;;5.40;99.90;5.20;99985.00;;;;4957098;28;88607;-67
2022/02/15 07:12:09;;;;;;;8.60;4.20;;;5.40;99.90;5.20;99986.00;;;;4956778;28;117857;-67
2022/02/15 07:14:38;;;;;;;4.60;3.33;;;5.40;99.90;5.20;99993.00;;;;4958016;28;87715;-67
2022/02/15 07:17:04;;;;;;;7.23;4.03;;;5.40;99.90;5.30;99985.00;;;;4971299;28;108548;-67
2022/02/15 07:19:32;;;;;;;6.60;3.80;;;5.40;99.90;5.30;99991.00;;;;4957414;28;88381;-67
2022/02/15 07:21:59;;;;;;;5.63;3.63;;;5.50;99.90;5.30;99997.00;;;;4964426;28;87958;-67
2022/02/15 07:24:26;;;;;;;5.40;3.40;;;5.50;99.90;5.40;99998.00;;;;4976908;28;91911;-67
2022/02/15 07:26:51;;;;;;;8.43;4.07;;;5.50;99.90;5.40;99997.00;;;;4975650;28;88879;-67
2022/02/15 07:29:18;;;;;;;7.20;4.50;;;5.50;99.90;5.50;99999.00;;;;4966248;28;87644;-67
2022/02/15 07:31:43;;;;;;;5.13;4.03;;;5.70;99.90;5.60;100002.00;;;;4975011;28;87907;-67
2022/02/15 07:34:09;;;;;;;5.50;4.30;;;5.70;99.90;5.60;100001.00;;;;4956623;28;111129;-67
2022/02/15 07:36:35;;;;;;;9.43;5.37;;;5.70;99.90;5.60;99996.00;;;;4957392;28;88748;-68
2022/02/15 07:39:00;;;;;;;8.37;4.70;;;5.70;99.90;5.70;100005.00;;;;4976487;28;102597;-67
2022/02/15 07:41:30;;;;;;;6.10;4.50;;;5.80;99.90;5.90;100014.00;;;;4975667;28;118830;-67
2022/02/15 07:43:56;;;;;;;6.80;4.13;;;6.00;99.90;6.10;100019.00;;;;4975834;28;87994;-66
2022/02/15 07:46:23;;;;;;;9.63;4.70;;;6.20;99.90;6.30;100009.00;;;;4977513;28;87823;-67
2022/02/15 07:48:49;;;;;;;7.23;3.90;;;6.40;99.90;6.60;100015.00;;;;4975572;28;88759;-66
2022/02/15 07:51:18;;;;;;;3.97;3.27;;;6.60;99.90;6.80;100019.00;;;;4976170;28;88729;-68
2022/02/15 07:53:44;;;;;;;7.23;3.77;;;6.80;99.90;7.20;100022.00;;;;4974668;28;109924;-66
2022/02/15 07:56:11;;;;;;;5.17;3.30;;;7.10;99.90;7.40;100019.00;;;;4971544;28;87814;-66
2022/02/15 07:58:37;;;;;;;6.13;4.00;;;7.40;99.90;7.70;100028.00;;;;4974185;28;88556;-65
2022/02/15 08:01:04;;;;;;;8.40;3.70;;;7.60;99.90;8.00;100029.00;;;;4956982;28;94272;-65
2022/02/15 08:03:29;;;;;;;8.47;3.27;;;8.00;99.90;8.30;100032.00;;;;4968636;28;88255;-66
2022/02/15 08:05:55;;;;;;;4.03;3.27;;;8.20;99.90;8.50;100029.00;;;;4975164;28;107227;-66
2022/02/15 08:08:21;;;;;;;10.27;3.47;;;8.50;99.90;8.80;100031.00;;;;4974624;28;88115;-66
2022/02/15 08:10:47;;;;;;;4.23;2.90;;;8.80;99.90;9.10;100048.00;;;;4975988;28;88866;-66
2022/02/15 08:13:18;;;;;;;3.47;2.30;;;9.10;99.90;9.30;100039.00;;;;4962946;28;87832;-66
2022/02/15 08:15:46;;;;;;;4.57;2.50;;;9.30;99.90;9.50;100050.00;;;;4957305;28;87939;-66
2022/02/15 08:18:12;;;;;;;3.03;2.63;;;9.50;99.90;9.60;100049.00;;;;4970072;28;88287;-66
2022/02/15 08:20:38;;;;;;;3.80;2.60;;;9.70;99.90;9.80;100049.00;;;;4975785;28;91576;-67
2022/02/15 08:23:05;;;;;;;3.23;2.67;;;9.80;99.90;9.90;100051.00;;;;4959476;28;87727;-67
2022/02/15 08:25:31;;;;;;;4.40;2.40;;;10.00;99.90;10.10;100046.00;;;;4956499;28;88898;-67
2022/02/15 08:27:57;;;;;;;4.80;2.67;;;10.10;99.90;10.20;100042.00;;;;4955709;28;96486;-66
2022/02/15 08:30:23;;;;;;;4.87;2.40;;;10.30;99.90;10.30;100046.00;;;;4956236;28;104262;-67
2022/02/15 08:32:49;;;;;;;3.40;2.00;;;10.30;99.90;10.50;100056.00;;;;4962566;28;90361;-67
2022/02/15 08:35:16;;;;;;;2.13;1.80;;;10.50;99.90;10.70;100063.00;;;;4976436;28;87864;-68
2022/02/15 08:37:43;;;;;;;3.63;2.00;;;10.60;99.90;11.00;100062.00;;;;4954855;28;87902;-66
2022/02/15 08:40:12;;;;;;;3.97;1.87;;;10.90;99.90;11.20;100057.00;;;;4958119;28;88406;-67
2022/02/15 08:42:39;;;;;;;3.40;1.83;;;11.20;99.90;11.40;100062.00;;;;4975610;28;87001;-67
2022/02/15 08:45:07;;;;;;;1.87;1.67;;;11.40;99.40;11.50;100079.00;;;;4962442;28;87487;-66
2022/02/15 08:47:34;;;;;;;5.00;2.37;;;11.50;98.30;11.60;100076.00;;;;4988564;28;89523;-67
2022/02/15 08:49:59;;;;;;;1.87;1.60;;;11.60;98.10;11.80;100075.00;;;;4975849;28;88572;-66
2022/02/15 08:52:26;;;;;;;4.40;2.23;;;11.80;96.80;11.80;100073.00;;;;4968262;28;110338;-65
2022/02/15 08:54:54;;;;;;;3.60;2.00;;;11.90;95.90;12.00;100074.00;;;;4955789;28;87618;-67
2022/02/15 08:57:21;;;;;;;3.23;1.80;;;12.00;94.30;12.00;100077.00;;;;4956467;28;87800;-66
2022/02/15 08:59:47;;;;;;;5.63;1.90;;;12.10;94.60;12.10;100064.00;;;;4956056;28;88056;-65
2022/02/15 09:02:13;;;;;;;1.90;1.50;;;12.20;94.30;12.20;100063.00;;;;4955689;28;87632;-65
2022/02/15 09:04:39;;;;;;;1.57;1.37;;;12.20;93.70;12.30;100056.00;;;;4955323;28;109107;-66
2022/02/15 09:07:08;;;;;;;3.33;1.50;;;12.40;93.80;12.50;100075.00;;;;4956073;28;117279;-66
2022/02/15 09:09:35;;;;;;;2.67;1.60;;;12.50;93.90;12.60;100059.00;;;;4955938;28;87996;-66
2022/02/15 09:12:01;;;;;;;5.33;1.97;;;12.60;93.00;12.70;100055.00;;;;4971420;28;87952;-67
2022/02/15 09:14:29;;;;;;;2.33;1.97;;;12.80;92.00;12.80;100073.00;;;;4975108;28;88981;-67
2022/02/15 09:16:56;;;;;;;5.70;1.87;;;12.80;91.40;12.90;100063.00;;;;4974722;28;88845;-66
2022/02/15 09:19:22;;;;;;;1.63;1.50;;;12.90;88.90;12.90;100066.00;;;;4975405;28;101774;-67
2022/02/15 09:21:50;;;;;;;3.57;1.63;;;12.90;89.60;13.00;100061.00;;;;4974914;28;109931;-68
2022/02/15 09:24:16;;;;;;;2.43;1.87;;;13.00;90.30;13.20;100060.00;;;;4975386;28;87910;-66
2022/02/15 09:26:42;;;;;;;3.50;1.50;;;13.20;87.60;13.20;100070.00;;;;4973477;28;88050;-66
2022/02/15 09:29:10;;;;;;;7.67;2.47;;;13.20;85.40;13.20;100068.00;;;;4954524;28;107229;-66
2022/02/15 09:31:39;;;;;;;8.17;1.80;;;13.30;82.10;13.10;100083.00;;;;4974646;28;86964;-66
2022/02/15 09:34:06;;;;;;;7.67;2.93;;;13.20;82.70;13.20;100084.00;;;;4975054;28;87833;-67
2022/02/15 09:36:31;;;;;;;2.87;1.70;;;13.20;82.80;13.20;100075.00;;;;4975828;28;88401;-67
2022/02/15 09:38:57;;;;;;;9.23;1.67;;;13.30;80.10;13.10;100096.00;;;;4973807;28;117627;-68
2022/02/15 09:41:23;;;;;;;4.30;1.70;;;13.20;80.70;13.10;100089.00;;;;4965081;28;87773;-67
2022/02/15 09:43:49;;;;;;;2.77;2.10;;;13.20;81.80;13.20;100088.00;;;;4973081;28;108956;-67
2022/02/15 09:46:16;;;;;;;3.90;1.73;;;13.30;81.40;13.40;100098.00;;;;4972609;28;99996;-66
2022/02/15 09:48:43;;;;;;;2.43;1.60;;;13.40;81.30;13.60;100091.00;;;;4956095;28;87939;-66
2022/02/15 09:51:11;;;;;;;2.40;1.60;;;13.50;80.60;13.70;100099.00;;;;4955385;28;87738;-66
2022/02/15 09:53:37;;;;;;;1.67;1.03;;;13.60;80.10;13.90;100106.00;;;;4972010;28;90892;-66
2022/02/15 09:56:05;;;;;;;1.20;1.10;;;13.80;78.00;14.00;100100.00;;;;4974899;28;94533;-66
2022/02/15 09:58:32;;;;;;;2.80;1.70;;;14.00;75.80;14.10;100108.00;;;;4974576;28;87773;-69
2022/02/15 10:01:01;;;;;;;3.20;2.03;;;14.10;76.80;14.30;100109.00;;;;4975716;28;87841;-70
2022/02/15 10:03:27;;;;;;;1.70;1.40;;;14.20;75.20;14.50;100096.00;;;;4974556;28;89040;-69
2022/02/15 10:05:52;;;;;;;4.23;1.60;;;14.40;75.20;14.70;100101.00;;;;4988552;28;116902;-71
2022/02/15 10:08:30;;;;;;;4.07;1.33;;;14.60;74.90;14.90;100094.00;;;;4965000;28;113331;-71
2022/02/15 10:11:06;;;;;;;1.52;1.17;;;14.80;72.70;14.90;100104.00;;;;4955213;28;87889;-70
2022/02/15 10:13:44;;;;;;;2.57;1.23;;;14.90;67.80;14.70;100109.00;;;;4963221;28;88388;-70
2022/02/15 10:16:10;;;;;;;2.53;1.27;;;14.80;68.10;14.70;100085.00;;;;4989636;28;87834;-72
2022/02/15 10:18:37;;;;;;;2.03;1.33;;;14.70;68.40;14.80;100117.00;;;;4972133;28;87816;-71
2022/02/15 10:21:05;;;;;;;2.55;1.65;;;14.70;69.40;14.80;100114.00;;;;4973356;28;87056;-71
2022/02/15 10:23:33;;;;;;;3.22;1.60;;;14.80;66.90;14.70;100114.00;;;;4972650;28;87903;-70
2022/02/15 10:26:00;;;;;;;1.73;1.40;;;14.70;66.00;14.60;100122.00;;;;4969141;28;88120;-71
2022/02/15 10:28:29;;;;;;;4.30;1.13;;;14.60;67.40;14.70;100120.00;;;;4953494;28;104707;-70
2022/02/15 10:31:01;;;;;;;3.33;1.70;;;14.70;67.60;14.80;100127.00;;;;4955001;28;87621;-70
2022/02/15 10:33:29;;;;;;;3.25;0.95;;;14.80;67.60;14.90;100125.00;;;;4955041;28;87846;-71
2022/02/15 10:36:05;;;;;;;1.98;1.48;;;14.90;67.00;15.00;100129.00;;;;4960802;28;88581;-73
2022/02/15 10:38:44;;;;;;;1.30;1.17;;;15.00;67.00;15.30;100119.00;;;;4974189;28;87792;-71
2022/02/15 10:41:21;;;;;;;1.35;1.10;;;15.10;67.00;15.40;100127.00;;;;4974765;28;87642;-72
2022/02/15 10:43:55;;;;;;;3.65;1.85;;;15.30;66.30;15.60;100120.00;;;;4976508;28;87875;-71
2022/02/15 10:46:23;;;;;;;2.58;1.38;;;15.40;65.40;15.80;100132.00;;;;4977916;28;104216;-72
2022/02/15 10:48:50;;;;;;;4.90;1.52;;;15.60;65.40;15.90;100120.00;;;;4970658;28;87813;-71
2022/02/15 10:51:17;;;;;;;1.65;1.35;;;15.80;64.30;16.00;100121.00;;;;4972181;28;87815;-71
2022/02/15 10:53:43;;;;;;;2.50;1.10;;;15.90;61.10;15.80;100115.00;;;;4973956;28;101461;-71
2022/02/15 10:56:10;;;;;;;1.35;1.15;;;15.80;62.20;15.80;100117.00;;;;4977508;28;92136;-70
2022/02/15 10:58:36;;;;;;;1.70;1.23;;;15.80;61.70;16.00;100120.00;;;;4977327;28;88199;-71
2022/02/15 11:01:07;;;;;;;1.30;1.15;;;15.80;62.50;16.10;100119.00;;;;4976111;28;97545;-70
2022/02/15 11:03:39;;;;;;;5.25;1.20;;;16.00;61.50;16.20;100114.00;;;;4977822;28;87792;-70